PWSweather.com
Personal Weather Stations
Station Observations
PALMY
Palmerston NorthNZ 4410

Palmerston NorthNZ 4410

Lat: -40.349104, Lon: 175.615094

Elevation: 75.4

Station Type: WeatherDuino Pro2

http://palmyweather.co.nz

Latest ConditionsUpdated 10:05:00 AM GMT+12:12 Sunday, Feb 24, 2019
Currently Today's Max Today's Min Today's Average
Temperature 61.2°F16.2°C 61.2°F16.2°C 53.2°F11.8°C 55.7°F13.2°C
Dew Point 55.7°F13.2°C 56.8°F13.8°C 48.6°F9.2°C 51.1°F10.6°C
Winds 3.6 mph ENE5.8 kmh ENE 4.0 mph -6.4 kmh - - 1.6 mph 2.6 kmh
Wind Gusts 7.2 mph11.6 kmh 12.1 mph19.5 kmh - -
Humidity 82% 94% 79% 85%
Pressure 29.53 in1000.0 mb 29.54 in1000.3 mb 29.48 in998.3 mb -
Precipitation - 0.26 in6.6 mm - -
Hour Temp Dew Point Humidity Winds Wind Gusts Pressure Precip Precip Rate Daily Precip Total
10:05 AM 61.2°F16.2°C 55.7°F13.2°C 82% 3.6 mph ENE5.8 kmh ENE 7.2 mph11.6 kmh 29.53 in1000.0 mb 0.00 in0.0 mm 0.00 in0.0 mm 0.26 in6.6 mm
10:00 AM 60.6°F15.9°C 55.4°F13.0°C 83% 4.0 mph ENE6.4 kmh ENE 9.0 mph14.5 kmh 29.52 in999.7 mb 0.01 in0.3 mm 0.00 in0.0 mm 0.26 in6.6 mm
09:55 AM 60.4°F15.8°C 55.9°F13.3°C 85% 3.1 mph ENE5.0 kmh ENE 9.0 mph14.5 kmh 29.53 in1000.0 mb 0.02 in0.5 mm 0.00 in0.0 mm 0.26 in6.6 mm
09:50 AM 59.5°F15.3°C 55.3°F12.9°C 86% 2.7 mph ENE4.3 kmh ENE 5.8 mph9.3 kmh 29.52 in999.7 mb 0.02 in0.5 mm 0.00 in0.0 mm 0.26 in6.6 mm
09:45 AM 59.2°F15.1°C 55.0°F12.8°C 86% 2.7 mph ENE4.3 kmh ENE 5.4 mph8.7 kmh 29.52 in999.7 mb 0.02 in0.5 mm 0.00 in0.0 mm 0.26 in6.6 mm
09:40 AM 59.0°F15.0°C 54.8°F12.7°C 86% 2.7 mph NE4.3 kmh NE 6.7 mph10.8 kmh 29.52 in999.7 mb 0.02 in0.5 mm 0.00 in0.0 mm 0.26 in6.6 mm
09:35 AM 59.4°F15.2°C 55.8°F13.2°C 88% 2.7 mph NE4.3 kmh NE 6.7 mph10.8 kmh 29.53 in1000.0 mb 0.02 in0.5 mm 0.00 in0.0 mm 0.26 in6.6 mm
09:30 AM 59.4°F15.2°C 56.8°F13.8°C 91% 2.2 mph NE3.5 kmh NE 6.7 mph10.8 kmh 29.52 in999.7 mb 0.02 in0.5 mm 0.00 in0.0 mm 0.26 in6.6 mm
09:25 AM 58.1°F14.5°C 55.8°F13.2°C 92% 2.7 mph ENE4.3 kmh ENE 8.5 mph13.7 kmh 29.52 in999.7 mb 0.02 in0.5 mm 0.00 in0.0 mm 0.26 in6.6 mm
09:20 AM 56.7°F13.7°C 54.7°F12.6°C 93% 3.1 mph E5.0 kmh E 8.5 mph13.7 kmh 29.51 in999.3 mb 0.03 in0.8 mm 0.00 in0.0 mm 0.26 in6.6 mm
09:15 AM 55.9°F13.3°C 53.9°F12.2°C 93% 3.6 mph E5.8 kmh E 7.6 mph12.2 kmh 29.51 in999.3 mb 0.03 in0.8 mm 0.00 in0.0 mm 0.26 in6.6 mm
09:10 AM 55.9°F13.3°C 53.9°F12.2°C 93% 3.1 mph E5.0 kmh E 7.6 mph12.2 kmh 29.51 in999.3 mb 0.04 in1.0 mm 0.00 in0.0 mm 0.26 in6.6 mm
09:05 AM 55.8°F13.2°C 54.1°F12.3°C 94% 3.1 mph ESE5.0 kmh ESE 6.3 mph10.1 kmh 29.51 in999.3 mb 0.07 in1.8 mm 0.00 in0.0 mm 0.26 in6.6 mm
09:00 AM 55.8°F13.2°C 54.1°F12.3°C 94% 2.2 mph ESE3.5 kmh ESE 4.9 mph7.9 kmh 29.51 in999.3 mb 0.09 in2.3 mm 0.00 in0.0 mm 0.25 in6.4 mm
08:55 AM 55.8°F13.2°C 54.1°F12.3°C 94% 1.8 mph SE2.9 kmh SE 4.0 mph6.4 kmh 29.52 in999.7 mb 0.15 in3.8 mm 0.00 in0.0 mm 0.24 in6.1 mm
08:50 AM 55.4°F13.0°C 53.7°F12.1°C 94% 1.8 mph E2.9 kmh E 4.0 mph6.4 kmh 29.52 in999.7 mb 0.20 in5.1 mm 0.00 in0.0 mm 0.24 in6.1 mm
08:45 AM 55.4°F13.0°C 53.7°F12.1°C 94% 1.8 mph E2.9 kmh E 3.6 mph5.8 kmh 29.52 in999.7 mb 0.21 in5.3 mm 0.00 in0.0 mm 0.24 in6.1 mm
08:40 AM 55.4°F13.0°C 53.7°F12.1°C 94% 1.3 mph E2.1 kmh E 2.7 mph4.3 kmh 29.52 in999.7 mb 0.21 in5.3 mm 0.00 in0.0 mm 0.24 in6.1 mm
08:35 AM 55.4°F13.0°C 53.7°F12.1°C 94% 0.9 mph ENE1.4 kmh ENE 2.7 mph4.3 kmh 29.52 in999.7 mb 0.21 in5.3 mm 0.00 in0.0 mm 0.24 in6.1 mm
08:30 AM 55.0°F12.8°C 53.0°F11.7°C 93% 0.9 mph N1.4 kmh N 1.8 mph2.9 kmh 29.52 in999.7 mb 0.22 in5.6 mm 0.00 in0.0 mm 0.24 in6.1 mm
08:25 AM 55.0°F12.8°C 53.0°F11.7°C 93% 0.9 mph W1.4 kmh W 2.7 mph4.3 kmh 29.52 in999.7 mb 0.22 in5.6 mm 0.12 in3.0 mm 0.24 in6.1 mm
08:20 AM 54.9°F12.7°C 52.9°F11.6°C 93% 1.3 mph SW2.1 kmh SW 4.0 mph6.4 kmh 29.52 in999.7 mb 0.21 in5.3 mm 0.00 in0.0 mm 0.23 in5.8 mm
08:15 AM 54.5°F12.5°C 52.5°F11.4°C 93% 1.8 mph SW2.9 kmh SW 4.0 mph6.4 kmh 29.52 in999.7 mb 0.22 in5.6 mm 0.12 in3.0 mm 0.23 in5.8 mm
08:10 AM 54.5°F12.5°C 52.2°F11.2°C 92% 1.8 mph SW2.9 kmh SW 4.0 mph6.4 kmh 29.52 in999.7 mb 0.21 in5.3 mm 0.36 in9.1 mm 0.21 in5.3 mm
08:05 AM 54.5°F12.5°C 52.2°F11.2°C 92% 1.8 mph SW2.9 kmh SW 4.0 mph6.4 kmh 29.52 in999.7 mb 0.18 in4.6 mm 0.36 in9.1 mm 0.18 in4.6 mm
08:00 AM 54.5°F12.5°C 52.2°F11.2°C 92% 2.2 mph SSW3.5 kmh SSW 4.0 mph6.4 kmh 29.52 in999.7 mb 0.15 in3.8 mm 0.07 in1.8 mm 0.15 in3.8 mm
07:55 AM 55.0°F12.8°C 52.4°F11.3°C 91% 1.8 mph SSW2.9 kmh SSW 4.0 mph6.4 kmh 29.51 in999.3 mb 0.09 in2.3 mm 0.60 in15.2 mm 0.09 in2.3 mm
07:50 AM 55.2°F12.9°C 52.3°F11.3°C 90% 1.8 mph S2.9 kmh S 4.0 mph6.4 kmh 29.51 in999.3 mb 0.04 in1.0 mm 0.12 in3.0 mm 0.04 in1.0 mm
07:45 AM 55.0°F12.8°C 52.1°F11.2°C 90% 2.2 mph S3.5 kmh S 4.5 mph7.2 kmh 29.50 in999.0 mb 0.03 in0.8 mm 0.12 in3.0 mm 0.03 in0.8 mm
07:40 AM 55.4°F13.0°C 52.5°F11.4°C 90% 1.8 mph S2.9 kmh S 4.5 mph7.2 kmh 29.50 in999.0 mb 0.02 in0.5 mm 0.00 in0.0 mm 0.02 in0.5 mm
07:35 AM 55.6°F13.1°C 52.4°F11.3°C 89% 0.9 mph S1.4 kmh S 3.6 mph5.8 kmh 29.50 in999.0 mb 0.02 in0.5 mm 0.00 in0.0 mm 0.02 in0.5 mm
07:30 AM 55.8°F13.2°C 52.6°F11.4°C 89% 0.4 mph SSE0.6 kmh SSE 2.2 mph3.5 kmh 29.50 in999.0 mb 0.02 in0.5 mm 0.00 in0.0 mm 0.02 in0.5 mm
07:25 AM 55.9°F13.3°C 52.4°F11.3°C 88% 0.9 mph S1.4 kmh S 3.1 mph5.0 kmh 29.50 in999.0 mb 0.02 in0.5 mm 0.00 in0.0 mm 0.02 in0.5 mm
07:20 AM 55.8°F13.2°C 52.0°F11.1°C 87% 0.9 mph S1.4 kmh S 3.1 mph5.0 kmh 29.50 in999.0 mb 0.02 in0.5 mm 0.12 in3.0 mm 0.02 in0.5 mm
07:15 AM 55.8°F13.2°C 52.0°F11.1°C 87% 0.4 mph SSE0.6 kmh SSE 1.8 mph2.9 kmh 29.50 in999.0 mb 0.01 in0.3 mm 0.12 in3.0 mm 0.01 in0.3 mm
07:10 AM 55.9°F13.3°C 51.8°F11.0°C 86% 0.4 mph SE0.6 kmh SE 1.8 mph2.9 kmh 29.49 in998.6 mb 0.00 in0.0 mm 0.00 in0.0 mm 0.00 in0.0 mm
07:05 AM 55.9°F13.3°C 51.5°F10.8°C 85% Calm Calm 0.9 mph1.4 kmh 29.50 in999.0 mb 0.00 in0.0 mm 0.00 in0.0 mm 0.00 in0.0 mm
07:00 AM 55.9°F13.3°C 51.5°F10.8°C 85% 0.9 mph ESE1.4 kmh ESE 2.2 mph3.5 kmh 29.49 in998.6 mb 0.00 in0.0 mm 0.00 in0.0 mm 0.00 in0.0 mm
06:55 AM 55.9°F13.3°C 51.1°F10.6°C 84% 1.3 mph SE2.1 kmh SE 2.7 mph4.3 kmh 29.49 in998.6 mb 0.00 in0.0 mm 0.00 in0.0 mm 0.00 in0.0 mm
06:50 AM 55.9°F13.3°C 50.8°F10.4°C 83% 1.3 mph SE2.1 kmh SE 3.1 mph5.0 kmh 29.48 in998.3 mb 0.00 in0.0 mm 0.00 in0.0 mm 0.00 in0.0 mm
06:45 AM 55.9°F13.3°C 50.5°F10.3°C 82% 1.3 mph SE2.1 kmh SE 3.1 mph5.0 kmh 29.48 in998.3 mb 0.00 in0.0 mm 0.00 in0.0 mm 0.00 in0.0 mm
06:40 AM 55.9°F13.3°C 50.5°F10.3°C 82% 1.3 mph SE2.1 kmh SE 2.7 mph4.3 kmh 29.48 in998.3 mb 0.00 in0.0 mm 0.00 in0.0 mm 0.00 in0.0 mm
06:35 AM 55.9°F13.3°C 50.5°F10.3°C 82% 1.3 mph ESE2.1 kmh ESE 4.0 mph6.4 kmh 29.48 in998.3 mb 0.00 in0.0 mm 0.00 in0.0 mm 0.00 in0.0 mm
06:30 AM 55.8°F13.2°C 50.1°F10.1°C 81% 1.8 mph E2.9 kmh E 4.0 mph6.4 kmh 29.48 in998.3 mb 0.00 in0.0 mm 0.00 in0.0 mm 0.00 in0.0 mm
06:25 AM 55.8°F13.2°C 50.4°F10.2°C 82% 2.2 mph ENE3.5 kmh ENE 4.5 mph7.2 kmh 29.48 in998.3 mb 0.00 in0.0 mm 0.00 in0.0 mm 0.00 in0.0 mm
06:20 AM 55.6°F13.1°C 49.9°F9.9°C 81% 2.7 mph ENE4.3 kmh ENE 5.4 mph8.7 kmh 29.48 in998.3 mb 0.00 in0.0 mm 0.00 in0.0 mm 0.00 in0.0 mm
06:15 AM 55.6°F13.1°C 50.2°F10.1°C 82% 2.2 mph ENE3.5 kmh ENE 5.4 mph8.7 kmh 29.48 in998.3 mb 0.00 in0.0 mm 0.00 in0.0 mm 0.00 in0.0 mm
06:10 AM 55.6°F13.1°C 50.2°F10.1°C 82% 1.8 mph ENE2.9 kmh ENE 4.5 mph7.2 kmh 29.48 in998.3 mb 0.00 in0.0 mm 0.00 in0.0 mm 0.00 in0.0 mm
06:05 AM 55.6°F13.1°C 50.2°F10.1°C 82% 1.8 mph NE2.9 kmh NE 4.5 mph7.2 kmh 29.48 in998.3 mb 0.00 in0.0 mm 0.00 in0.0 mm 0.00 in0.0 mm
06:00 AM 55.6°F13.1°C 50.2°F10.1°C 82% 1.8 mph ENE2.9 kmh ENE 3.6 mph5.8 kmh 29.48 in998.3 mb 0.00 in0.0 mm 0.00 in0.0 mm 0.00 in0.0 mm
05:55 AM 55.4°F13.0°C 50.0°F10.0°C 82% 1.8 mph ENE2.9 kmh ENE 4.0 mph6.4 kmh 29.48 in998.3 mb 0.00 in0.0 mm 0.00 in0.0 mm 0.00 in0.0 mm
05:50 AM 55.2°F12.9°C 50.1°F10.1°C 83% 2.2 mph ENE3.5 kmh ENE 5.4 mph8.7 kmh 29.48 in998.3 mb 0.00 in0.0 mm 0.00 in0.0 mm 0.00 in0.0 mm
05:45 AM 55.0°F12.8°C 49.9°F9.9°C 83% 2.7 mph NE4.3 kmh NE 5.4 mph8.7 kmh 29.48 in998.3 mb 0.00 in0.0 mm 0.00 in0.0 mm 0.00 in0.0 mm
05:40 AM 54.9°F12.7°C 50.2°F10.1°C 84% 2.7 mph ENE4.3 kmh ENE 4.5 mph7.2 kmh 29.48 in998.3 mb 0.00 in0.0 mm 0.00 in0.0 mm 0.00 in0.0 mm
05:35 AM 54.9°F12.7°C 50.2°F10.1°C 84% 2.7 mph ENE4.3 kmh ENE 4.5 mph7.2 kmh 29.48 in998.3 mb 0.00 in0.0 mm 0.00 in0.0 mm 0.00 in0.0 mm
05:30 AM 54.7°F12.6°C 50.0°F10.0°C 84% 2.2 mph ENE3.5 kmh ENE 4.0 mph6.4 kmh 29.48 in998.3 mb 0.00 in0.0 mm 0.00 in0.0 mm 0.00 in0.0 mm
05:25 AM 54.7°F12.6°C 50.0°F10.0°C 84% 1.3 mph E2.1 kmh E 3.6 mph5.8 kmh 29.48 in998.3 mb 0.00 in0.0 mm 0.00 in0.0 mm 0.00 in0.0 mm
05:20 AM 54.5°F12.5°C 49.8°F9.9°C 84% 0.9 mph E1.4 kmh E 2.7 mph4.3 kmh 29.48 in998.3 mb 0.00 in0.0 mm 0.00 in0.0 mm 0.00 in0.0 mm
05:15 AM 54.5°F12.5°C 49.8°F9.9°C 84% 0.9 mph E1.4 kmh E 2.7 mph4.3 kmh 29.48 in998.3 mb 0.00 in0.0 mm 0.00 in0.0 mm 0.00 in0.0 mm
05:10 AM 54.5°F12.5°C 49.8°F9.9°C 84% 0.9 mph E1.4 kmh E 2.7 mph4.3 kmh 29.48 in998.3 mb 0.00 in0.0 mm 0.00 in0.0 mm 0.00 in0.0 mm
05:05 AM 54.5°F12.5°C 49.8°F9.9°C 84% 0.9 mph E1.4 kmh E 2.2 mph3.5 kmh 29.48 in998.3 mb 0.00 in0.0 mm 0.00 in0.0 mm 0.00 in0.0 mm
05:00 AM 54.3°F12.4°C 49.6°F9.8°C 84% 0.9 mph ENE1.4 kmh ENE 1.8 mph2.9 kmh 29.48 in998.3 mb 0.00 in0.0 mm 0.00 in0.0 mm 0.00 in0.0 mm
04:55 AM 54.1°F12.3°C 49.7°F9.8°C 85% 0.9 mph ENE1.4 kmh ENE 2.7 mph4.3 kmh 29.48 in998.3 mb 0.00 in0.0 mm 0.00 in0.0 mm 0.00 in0.0 mm
04:50 AM 53.8°F12.1°C 49.4°F9.7°C 85% 0.4 mph ENE0.6 kmh ENE 2.7 mph4.3 kmh 29.48 in998.3 mb 0.00 in0.0 mm 0.00 in0.0 mm 0.00 in0.0 mm
04:45 AM 53.6°F12.0°C 49.2°F9.6°C 85% Calm Calm 0.9 mph1.4 kmh 29.48 in998.3 mb 0.00 in0.0 mm 0.00 in0.0 mm 0.00 in0.0 mm
04:40 AM 53.4°F11.9°C 49.0°F9.4°C 85% 0.4 mph NE0.6 kmh NE 2.2 mph3.5 kmh 29.48 in998.3 mb 0.00 in0.0 mm 0.00 in0.0 mm 0.00 in0.0 mm
04:35 AM 53.2°F11.8°C 48.8°F9.3°C 85% 0.4 mph NE0.6 kmh NE 2.2 mph3.5 kmh 29.48 in998.3 mb 0.00 in0.0 mm 0.00 in0.0 mm 0.00 in0.0 mm
04:30 AM 53.4°F11.9°C 48.7°F9.3°C 84% 0.4 mph ENE0.6 kmh ENE 1.3 mph2.1 kmh 29.48 in998.3 mb 0.00 in0.0 mm 0.00 in0.0 mm 0.00 in0.0 mm
04:25 AM 53.4°F11.9°C 48.7°F9.3°C 84% 0.4 mph E0.6 kmh E 1.8 mph2.9 kmh 29.48 in998.3 mb 0.00 in0.0 mm 0.00 in0.0 mm 0.00 in0.0 mm
04:20 AM 53.6°F12.0°C 48.6°F9.2°C 83% 0.4 mph SE0.6 kmh SE 1.8 mph2.9 kmh 29.48 in998.3 mb 0.00 in0.0 mm 0.00 in0.0 mm 0.00 in0.0 mm
04:15 AM 54.0°F12.2°C 49.0°F9.4°C 83% 0.9 mph SE1.4 kmh SE 1.8 mph2.9 kmh 29.48 in998.3 mb 0.00 in0.0 mm 0.00 in0.0 mm 0.00 in0.0 mm
04:10 AM 54.1°F12.3°C 48.7°F9.3°C 82% 0.9 mph S1.4 kmh S 2.7 mph4.3 kmh 29.48 in998.3 mb 0.00 in0.0 mm 0.00 in0.0 mm 0.00 in0.0 mm
04:05 AM 54.0°F12.2°C 49.0°F9.4°C 83% 0.9 mph SW1.4 kmh SW 2.7 mph4.3 kmh 29.48 in998.3 mb 0.00 in0.0 mm 0.00 in0.0 mm 0.00 in0.0 mm
04:00 AM 54.0°F12.2°C 49.0°F9.4°C 83% 0.4 mph SW0.6 kmh SW 1.3 mph2.1 kmh 29.48 in998.3 mb 0.00 in0.0 mm 0.00 in0.0 mm 0.00 in0.0 mm
03:55 AM 54.3°F12.4°C 48.9°F9.4°C 82% 0.9 mph SW1.4 kmh SW 2.7 mph4.3 kmh 29.48 in998.3 mb 0.00 in0.0 mm 0.00 in0.0 mm 0.00 in0.0 mm
03:50 AM 54.5°F12.5°C 49.1°F9.5°C 82% 0.9 mph SW1.4 kmh SW 2.7 mph4.3 kmh 29.48 in998.3 mb 0.00 in0.0 mm 0.00 in0.0 mm 0.00 in0.0 mm
03:45 AM 54.9°F12.7°C 49.2°F9.6°C 81% 0.9 mph SW1.4 kmh SW 2.7 mph4.3 kmh 29.49 in998.6 mb 0.00 in0.0 mm 0.00 in0.0 mm 0.00 in0.0 mm
03:40 AM 55.0°F12.8°C 48.9°F9.4°C 80% 1.3 mph WSW2.1 kmh WSW 3.1 mph5.0 kmh 29.49 in998.6 mb 0.00 in0.0 mm 0.00 in0.0 mm 0.00 in0.0 mm
03:35 AM 55.0°F12.8°C 48.9°F9.4°C 80% 1.3 mph WNW2.1 kmh WNW 5.8 mph9.3 kmh 29.49 in998.6 mb 0.00 in0.0 mm 0.00 in0.0 mm 0.00 in0.0 mm
03:30 AM 55.0°F12.8°C 48.9°F9.4°C 80% 1.8 mph WNW2.9 kmh WNW 5.8 mph9.3 kmh 29.49 in998.6 mb 0.00 in0.0 mm 0.00 in0.0 mm 0.00 in0.0 mm
03:25 AM 55.2°F12.9°C 49.5°F9.7°C 81% 1.8 mph NW2.9 kmh NW 3.6 mph5.8 kmh 29.49 in998.6 mb 0.00 in0.0 mm 0.00 in0.0 mm 0.00 in0.0 mm
03:20 AM 55.4°F13.0°C 49.7°F9.8°C 81% 2.2 mph NW3.5 kmh NW 5.8 mph9.3 kmh 29.49 in998.6 mb 0.00 in0.0 mm 0.00 in0.0 mm 0.00 in0.0 mm
03:15 AM 55.4°F13.0°C 49.7°F9.8°C 81% 3.1 mph NW5.0 kmh NW 5.8 mph9.3 kmh 29.49 in998.6 mb 0.00 in0.0 mm 0.00 in0.0 mm 0.00 in0.0 mm
03:10 AM 55.6°F13.1°C 49.9°F9.9°C 81% 3.1 mph NW5.0 kmh NW 6.7 mph10.8 kmh 29.49 in998.6 mb 0.00 in0.0 mm 0.00 in0.0 mm 0.00 in0.0 mm
03:05 AM 55.6°F13.1°C 49.9°F9.9°C 81% 3.6 mph NW5.8 kmh NW 7.2 mph11.6 kmh 29.49 in998.6 mb 0.00 in0.0 mm 0.00 in0.0 mm 0.00 in0.0 mm
03:00 AM 55.6°F13.1°C 49.9°F9.9°C 81% 3.6 mph NW5.8 kmh NW 8.1 mph13.0 kmh 29.49 in998.6 mb 0.00 in0.0 mm 0.00 in0.0 mm 0.00 in0.0 mm
02:55 AM 55.8°F13.2°C 50.1°F10.1°C 81% 3.1 mph NW5.0 kmh NW 8.1 mph13.0 kmh 29.49 in998.6 mb 0.00 in0.0 mm 0.00 in0.0 mm 0.00 in0.0 mm
02:50 AM 56.1°F13.4°C 50.3°F10.2°C 81% 4.0 mph NW6.4 kmh NW 12.1 mph19.5 kmh 29.49 in998.6 mb 0.00 in0.0 mm 0.00 in0.0 mm 0.00 in0.0 mm
02:45 AM 56.1°F13.4°C 50.3°F10.2°C 81% 4.0 mph NW6.4 kmh NW 12.1 mph19.5 kmh 29.49 in998.6 mb 0.00 in0.0 mm 0.00 in0.0 mm 0.00 in0.0 mm
02:40 AM 56.1°F13.4°C 50.3°F10.2°C 81% 3.6 mph NW5.8 kmh NW 9.9 mph15.9 kmh 29.50 in999.0 mb 0.00 in0.0 mm 0.00 in0.0 mm 0.00 in0.0 mm
02:35 AM 56.1°F13.4°C 50.0°F10.0°C 80% 3.1 mph WNW5.0 kmh WNW 9.0 mph14.5 kmh 29.50 in999.0 mb 0.00 in0.0 mm 0.00 in0.0 mm 0.00 in0.0 mm
02:30 AM 55.9°F13.3°C 49.8°F9.9°C 80% 2.7 mph WSW4.3 kmh WSW 8.1 mph13.0 kmh 29.50 in999.0 mb 0.00 in0.0 mm 0.00 in0.0 mm 0.00 in0.0 mm
02:25 AM 55.9°F13.3°C 49.5°F9.7°C 79% 1.8 mph W2.9 kmh W 8.1 mph13.0 kmh 29.50 in999.0 mb 0.00 in0.0 mm 0.00 in0.0 mm 0.00 in0.0 mm
02:20 AM 55.8°F13.2°C 49.7°F9.8°C 80% 1.3 mph NW2.1 kmh NW 3.1 mph5.0 kmh 29.50 in999.0 mb 0.00 in0.0 mm 0.00 in0.0 mm 0.00 in0.0 mm
02:15 AM 55.6°F13.1°C 49.5°F9.7°C 80% 1.8 mph NW2.9 kmh NW 3.1 mph5.0 kmh 29.50 in999.0 mb 0.00 in0.0 mm 0.00 in0.0 mm 0.00 in0.0 mm
02:10 AM 55.4°F13.0°C 49.7°F9.8°C 81% 1.3 mph WNW2.1 kmh WNW 2.7 mph4.3 kmh 29.50 in999.0 mb 0.00 in0.0 mm 0.00 in0.0 mm 0.00 in0.0 mm
02:05 AM 55.2°F12.9°C 49.8°F9.9°C 82% 0.9 mph NW1.4 kmh NW 2.7 mph4.3 kmh 29.50 in999.0 mb 0.00 in0.0 mm 0.00 in0.0 mm 0.00 in0.0 mm
02:00 AM 55.2°F12.9°C 49.8°F9.9°C 82% 0.9 mph NNW1.4 kmh NNW 1.8 mph2.9 kmh 29.50 in999.0 mb 0.00 in0.0 mm 0.00 in0.0 mm 0.00 in0.0 mm
01:55 AM 55.4°F13.0°C 50.3°F10.2°C 83% 0.4 mph N0.6 kmh N 1.8 mph2.9 kmh 29.51 in999.3 mb 0.00 in0.0 mm 0.00 in0.0 mm 0.00 in0.0 mm
01:50 AM 55.2°F12.9°C 50.1°F10.1°C 83% 0.9 mph N1.4 kmh N 1.8 mph2.9 kmh 29.50 in999.0 mb 0.00 in0.0 mm 0.00 in0.0 mm 0.00 in0.0 mm
01:45 AM 55.0°F12.8°C 49.9°F9.9°C 83% 0.9 mph N1.4 kmh N 1.8 mph2.9 kmh 29.51 in999.3 mb 0.00 in0.0 mm 0.00 in0.0 mm 0.00 in0.0 mm
01:40 AM 55.0°F12.8°C 50.3°F10.2°C 84% 0.9 mph N1.4 kmh N 1.8 mph2.9 kmh 29.51 in999.3 mb 0.00 in0.0 mm 0.00 in0.0 mm 0.00 in0.0 mm
01:35 AM 54.7°F12.6°C 50.0°F10.0°C 84% 0.4 mph NNW0.6 kmh NNW 1.3 mph2.1 kmh 29.51 in999.3 mb 0.00 in0.0 mm 0.00 in0.0 mm 0.00 in0.0 mm
01:30 AM 54.5°F12.5°C 50.1°F10.1°C 85% 0.4 mph NW0.6 kmh NW 2.2 mph3.5 kmh 29.51 in999.3 mb 0.00 in0.0 mm 0.00 in0.0 mm 0.00 in0.0 mm
01:25 AM 54.5°F12.5°C 50.1°F10.1°C 85% 0.4 mph WNW0.6 kmh WNW 2.2 mph3.5 kmh 29.51 in999.3 mb 0.00 in0.0 mm 0.00 in0.0 mm 0.00 in0.0 mm
01:20 AM 54.5°F12.5°C 49.8°F9.9°C 84% 0.4 mph W0.6 kmh W 1.3 mph2.1 kmh 29.52 in999.7 mb 0.00 in0.0 mm 0.00 in0.0 mm 0.00 in0.0 mm
01:15 AM 54.7°F12.6°C 50.0°F10.0°C 84% 0.4 mph W0.6 kmh W 1.3 mph2.1 kmh 29.52 in999.7 mb 0.00 in0.0 mm 0.00 in0.0 mm 0.00 in0.0 mm
01:10 AM 55.0°F12.8°C 50.3°F10.2°C 84% 0.4 mph NW0.6 kmh NW 1.8 mph2.9 kmh 29.52 in999.7 mb 0.00 in0.0 mm 0.00 in0.0 mm 0.00 in0.0 mm
01:05 AM 55.2°F12.9°C 50.1°F10.1°C 83% 0.9 mph NW1.4 kmh NW 3.6 mph5.8 kmh 29.52 in999.7 mb 0.00 in0.0 mm 0.00 in0.0 mm 0.00 in0.0 mm
01:00 AM 55.4°F13.0°C 50.3°F10.2°C 83% 0.9 mph NW1.4 kmh NW 3.6 mph5.8 kmh 29.52 in999.7 mb 0.00 in0.0 mm 0.00 in0.0 mm 0.00 in0.0 mm
12:55 AM 55.6°F13.1°C 50.5°F10.3°C 83% 0.9 mph NW1.4 kmh NW 3.1 mph5.0 kmh 29.52 in999.7 mb 0.00 in0.0 mm 0.00 in0.0 mm 0.00 in0.0 mm
12:50 AM 55.8°F13.2°C 51.0°F10.6°C 84% 0.9 mph NW1.4 kmh NW 2.7 mph4.3 kmh 29.52 in999.7 mb 0.00 in0.0 mm 0.00 in0.0 mm 0.00 in0.0 mm
12:45 AM 56.1°F13.4°C 51.3°F10.7°C 84% 0.9 mph NW1.4 kmh NW 4.0 mph6.4 kmh 29.53 in1000.0 mb 0.00 in0.0 mm 0.00 in0.0 mm 0.00 in0.0 mm
12:40 AM 56.5°F13.6°C 51.7°F10.9°C 84% 1.3 mph NW2.1 kmh NW 4.0 mph6.4 kmh 29.53 in1000.0 mb 0.00 in0.0 mm 0.00 in0.0 mm 0.00 in0.0 mm
12:35 AM 57.0°F13.9°C 51.9°F11.1°C 83% 1.8 mph NW2.9 kmh NW 4.5 mph7.2 kmh 29.53 in1000.0 mb 0.00 in0.0 mm 0.00 in0.0 mm 0.00 in0.0 mm
12:30 AM 57.4°F14.1°C 51.9°F11.1°C 82% 1.3 mph NW2.1 kmh NW 4.5 mph7.2 kmh 29.53 in1000.0 mb 0.00 in0.0 mm 0.00 in0.0 mm 0.00 in0.0 mm
12:25 AM 57.7°F14.3°C 52.2°F11.2°C 82% 1.8 mph WNW2.9 kmh WNW 4.0 mph6.4 kmh 29.53 in1000.0 mb 0.00 in0.0 mm 0.00 in0.0 mm 0.00 in0.0 mm
12:20 AM 57.7°F14.3°C 52.2°F11.2°C 82% 2.2 mph WNW3.5 kmh WNW 4.0 mph6.4 kmh 29.53 in1000.0 mb 0.00 in0.0 mm 0.00 in0.0 mm 0.00 in0.0 mm
12:15 AM 57.9°F14.4°C 52.1°F11.2°C 81% 2.2 mph WNW3.5 kmh WNW 4.5 mph7.2 kmh 29.54 in1000.3 mb 0.00 in0.0 mm 0.00 in0.0 mm 0.00 in0.0 mm
12:10 AM 57.9°F14.4°C 52.1°F11.2°C 81% 2.7 mph WNW4.3 kmh WNW 4.9 mph7.9 kmh 29.54 in1000.3 mb 0.00 in0.0 mm 0.00 in0.0 mm 0.00 in0.0 mm
12:05 AM 58.1°F14.5°C 52.3°F11.3°C 81% 2.7 mph WNW4.3 kmh WNW 6.3 mph10.1 kmh 29.54 in1000.3 mb 0.00 in0.0 mm 0.00 in0.0 mm 0.00 in0.0 mm
12:00 AM 58.3°F14.6°C 52.5°F11.4°C 81% 2.7 mph W4.3 kmh W 6.7 mph10.8 kmh 29.54 in1000.3 mb 0.00 in0.0 mm 0.00 in0.0 mm 0.00 in0.0 mm